sensor_id;sensor_type;location;lat;lon;timestamp;P1;durP1;ratioP1;P2;durP2;ratioP2
70729;SDS011;58315;53.336;55.932;2022-08-03T00:01:48;23.02;;;8.07;;
70729;SDS011;58315;53.336;55.932;2022-08-03T00:04:32;20.83;;;7.95;;
70729;SDS011;58315;53.336;55.932;2022-08-03T00:07:17;17.33;;;6.97;;
70729;SDS011;58315;53.336;55.932;2022-08-03T00:10:01;23.85;;;7.32;;
70729;SDS011;58315;53.336;55.932;2022-08-03T00:12:47;20.48;;;7.57;;
70729;SDS011;58315;53.336;55.932;2022-08-03T00:15:31;18.00;;;7.53;;
70729;SDS011;58315;53.336;55.932;2022-08-03T00:18:16;20.00;;;7.53;;
70729;SDS011;58315;53.336;55.932;2022-08-03T00:21:00;43.58;;;9.50;;
70729;SDS011;58315;53.336;55.932;2022-08-03T00:23:45;23.88;;;8.00;;
70729;SDS011;58315;53.336;55.932;2022-08-03T00:26:30;28.27;;;7.78;;
70729;SDS011;58315;53.336;55.932;2022-08-03T00:29:15;17.90;;;7.07;;
70729;SDS011;58315;53.336;55.932;2022-08-03T00:31:59;17.67;;;7.88;;
70729;SDS011;58315;53.336;55.932;2022-08-03T00:34:44;18.35;;;8.43;;
70729;SDS011;58315;53.336;55.932;2022-08-03T00:37:28;17.20;;;8.00;;
70729;SDS011;58315;53.336;55.932;2022-08-03T00:40:13;19.02;;;8.57;;
70729;SDS011;58315;53.336;55.932;2022-08-03T00:42:59;12.52;;;7.53;;
70729;SDS011;58315;53.336;55.932;2022-08-03T00:45:45;36.08;;;8.68;;
70729;SDS011;58315;53.336;55.932;2022-08-03T00:48:30;23.88;;;8.80;;
70729;SDS011;58315;53.336;55.932;2022-08-03T00:51:14;17.83;;;8.07;;
70729;SDS011;58315;53.336;55.932;2022-08-03T00:53:59;23.73;;;8.02;;
70729;SDS011;58315;53.336;55.932;2022-08-03T00:56:43;20.90;;;8.40;;
70729;SDS011;58315;53.336;55.932;2022-08-03T00:59:29;17.15;;;7.75;;
70729;SDS011;58315;53.336;55.932;2022-08-03T01:02:13;20.70;;;7.97;;
70729;SDS011;58315;53.336;55.932;2022-08-03T01:04:58;14.70;;;7.25;;
70729;SDS011;58315;53.336;55.932;2022-08-03T01:13:29;17.65;;;7.55;;
70729;SDS011;58315;53.336;55.932;2022-08-03T01:16:43;19.67;;;9.02;;
70729;SDS011;58315;53.336;55.932;2022-08-03T01:31:21;23.10;;;8.70;;
70729;SDS011;58315;53.336;55.932;2022-08-03T01:34:10;18.08;;;8.57;;
70729;SDS011;58315;53.336;55.932;2022-08-03T01:36:58;22.42;;;9.35;;
70729;SDS011;58315;53.336;55.932;2022-08-03T01:39:44;22.20;;;9.70;;
70729;SDS011;58315;53.336;55.932;2022-08-03T01:42:29;21.27;;;8.55;;
70729;SDS011;58315;53.336;55.932;2022-08-03T01:45:15;20.98;;;8.73;;
70729;SDS011;58315;53.336;55.932;2022-08-03T01:48:01;18.58;;;8.38;;
70729;SDS011;58315;53.336;55.932;2022-08-03T01:50:47;24.42;;;8.60;;
70729;SDS011;58315;53.336;55.932;2022-08-03T01:53:33;36.30;;;9.20;;
70729;SDS011;58315;53.336;55.932;2022-08-03T01:56:21;28.45;;;10.23;;
70729;SDS011;58315;53.336;55.932;2022-08-03T01:59:07;22.33;;;9.00;;
70729;SDS011;58315;53.336;55.932;2022-08-03T02:01:53;26.35;;;10.18;;
70729;SDS011;58315;53.336;55.932;2022-08-03T02:04:40;25.67;;;9.80;;
70729;SDS011;58315;53.336;55.932;2022-08-03T02:07:26;32.22;;;11.07;;
70729;SDS011;58315;53.336;55.932;2022-08-03T02:10:12;34.63;;;10.13;;
70729;SDS011;58315;53.336;55.932;2022-08-03T02:12:59;28.77;;;10.10;;
70729;SDS011;58315;53.336;55.932;2022-08-03T02:15:45;17.58;;;8.20;;
70729;SDS011;58315;53.336;55.932;2022-08-03T02:18:31;15.48;;;6.90;;
70729;SDS011;58315;53.336;55.932;2022-08-03T02:21:16;21.48;;;6.88;;
70729;SDS011;58315;53.336;55.932;2022-08-03T02:24:01;17.75;;;5.65;;
70729;SDS011;58315;53.336;55.932;2022-08-03T02:26:47;13.82;;;5.95;;
70729;SDS011;58315;53.336;55.932;2022-08-03T02:29:34;13.75;;;6.15;;
70729;SDS011;58315;53.336;55.932;2022-08-03T02:32:23;16.15;;;5.82;;
70729;SDS011;58315;53.336;55.932;2022-08-03T02:35:14;11.10;;;6.05;;
70729;SDS011;58315;53.336;55.932;2022-08-03T02:38:02;18.30;;;6.22;;
70729;SDS011;58315;53.336;55.932;2022-08-03T02:40:49;14.15;;;6.10;;
70729;SDS011;58315;53.336;55.932;2022-08-03T02:43:35;11.43;;;5.85;;
70729;SDS011;58315;53.336;55.932;2022-08-03T02:46:21;13.25;;;5.70;;
70729;SDS011;58315;53.336;55.932;2022-08-03T02:49:09;20.23;;;6.03;;
70729;SDS011;58315;53.336;55.932;2022-08-03T02:51:56;13.52;;;5.60;;
70729;SDS011;58315;53.336;55.932;2022-08-03T02:54:43;16.10;;;5.95;;
70729;SDS011;58315;53.336;55.932;2022-08-03T02:57:29;15.07;;;5.28;;
70729;SDS011;58315;53.336;55.932;2022-08-03T03:00:16;18.45;;;5.32;;
70729;SDS011;58315;53.336;55.932;2022-08-03T03:03:01;25.77;;;6.70;;
70729;SDS011;58315;53.336;55.932;2022-08-03T03:05:49;14.13;;;6.03;;
70729;SDS011;58315;53.336;55.932;2022-08-03T03:08:34;20.33;;;5.93;;
70729;SDS011;58315;53.336;55.932;2022-08-03T03:11:20;38.78;;;6.57;;
70729;SDS011;58315;53.336;55.932;2022-08-03T03:14:05;14.02;;;5.25;;
70729;SDS011;58315;53.336;55.932;2022-08-03T03:16:52;11.05;;;5.35;;
70729;SDS011;58315;53.336;55.932;2022-08-03T03:19:38;12.82;;;5.45;;
70729;SDS011;58315;53.336;55.932;2022-08-03T03:22:24;8.63;;;3.88;;
70729;SDS011;58315;53.336;55.932;2022-08-03T03:25:10;6.57;;;3.08;;
70729;SDS011;58315;53.336;55.932;2022-08-03T03:27:55;7.40;;;3.20;;
70729;SDS011;58315;53.336;55.932;2022-08-03T03:30:41;9.27;;;2.88;;
70729;SDS011;58315;53.336;55.932;2022-08-03T03:33:25;6.50;;;2.60;;
70729;SDS011;58315;53.336;55.932;2022-08-03T03:36:10;4.93;;;2.20;;
70729;SDS011;58315;53.336;55.932;2022-08-03T03:38:54;4.70;;;2.50;;
70729;SDS011;58315;53.336;55.932;2022-08-03T03:41:40;7.80;;;2.78;;
70729;SDS011;58315;53.336;55.932;2022-08-03T03:44:28;84.68;;;4.70;;
70729;SDS011;58315;53.336;55.932;2022-08-03T03:47:12;10.98;;;2.67;;
70729;SDS011;58315;53.336;55.932;2022-08-03T03:49:57;8.32;;;2.80;;
70729;SDS011;58315;53.336;55.932;2022-08-03T03:52:42;10.82;;;2.63;;
70729;SDS011;58315;53.336;55.932;2022-08-03T03:55:26;6.57;;;2.78;;
70729;SDS011;58315;53.336;55.932;2022-08-03T03:58:14;7.18;;;2.45;;
70729;SDS011;58315;53.336;55.932;2022-08-03T04:00:59;14.73;;;2.72;;
70729;SDS011;58315;53.336;55.932;2022-08-03T04:03:43;32.20;;;11.50;;
70729;SDS011;58315;53.336;55.932;2022-08-03T04:06:28;9.27;;;2.95;;
70729;SDS011;58315;53.336;55.932;2022-08-03T04:09:31;10.02;;;2.42;;
70729;SDS011;58315;53.336;55.932;2022-08-03T04:12:38;6.68;;;2.60;;
70729;SDS011;58315;53.336;55.932;2022-08-03T04:15:24;7.45;;;2.20;;
70729;SDS011;58315;53.336;55.932;2022-08-03T04:18:11;17.23;;;2.60;;
70729;SDS011;58315;53.336;55.932;2022-08-03T04:21:02;13.60;;;2.67;;
70729;SDS011;58315;53.336;55.932;2022-08-03T04:23:50;8.38;;;2.47;;
70729;SDS011;58315;53.336;55.932;2022-08-03T04:26:38;8.32;;;2.25;;
70729;SDS011;58315;53.336;55.932;2022-08-03T04:29:24;12.90;;;2.75;;
70729;SDS011;58315;53.336;55.932;2022-08-03T04:32:09;15.13;;;2.80;;
70729;SDS011;58315;53.336;55.932;2022-08-03T04:34:54;36.53;;;3.22;;
70729;SDS011;58315;53.336;55.932;2022-08-03T04:37:41;5.38;;;2.40;;
70729;SDS011;58315;53.336;55.932;2022-08-03T04:40:34;8.02;;;2.20;;
70729;SDS011;58315;53.336;55.932;2022-08-03T04:43:22;9.93;;;2.97;;
70729;SDS011;58315;53.336;55.932;2022-08-03T04:46:08;6.95;;;3.17;;
70729;SDS011;58315;53.336;55.932;2022-08-03T04:48:53;4.72;;;2.33;;
70729;SDS011;58315;53.336;55.932;2022-08-03T04:51:40;7.75;;;2.60;;
70729;SDS011;58315;53.336;55.932;2022-08-03T04:54:25;4.45;;;2.30;;
70729;SDS011;58315;53.336;55.932;2022-08-03T04:57:10;12.82;;;2.30;;
70729;SDS011;58315;53.336;55.932;2022-08-03T04:59:55;10.82;;;2.50;;
70729;SDS011;58315;53.336;55.932;2022-08-03T05:02:40;5.22;;;2.00;;
70729;SDS011;58315;53.336;55.932;2022-08-03T05:05:24;6.50;;;2.17;;
70729;SDS011;58315;53.336;55.932;2022-08-03T05:08:09;8.68;;;2.70;;
70729;SDS011;58315;53.336;55.932;2022-08-03T05:10:54;8.93;;;2.17;;
70729;SDS011;58315;53.336;55.932;2022-08-03T05:13:39;6.38;;;2.35;;
70729;SDS011;58315;53.336;55.932;2022-08-03T05:16:23;4.63;;;1.90;;
70729;SDS011;58315;53.336;55.932;2022-08-03T05:19:08;5.05;;;2.25;;
70729;SDS011;58315;53.336;55.932;2022-08-03T05:21:53;4.20;;;2.00;;
70729;SDS011;58315;53.336;55.932;2022-08-03T05:24:37;5.32;;;1.80;;
70729;SDS011;58315;53.336;55.932;2022-08-03T05:27:21;4.82;;;2.05;;
70729;SDS011;58315;53.336;55.932;2022-08-03T05:30:06;4.03;;;1.90;;
70729;SDS011;58315;53.336;55.932;2022-08-03T05:32:51;15.30;;;1.98;;
70729;SDS011;58315;53.336;55.932;2022-08-03T05:35:36;7.70;;;2.28;;
70729;SDS011;58315;53.336;55.932;2022-08-03T05:38:22;9.02;;;3.22;;
70729;SDS011;58315;53.336;55.932;2022-08-03T05:41:06;8.45;;;1.85;;
70729;SDS011;58315;53.336;55.932;2022-08-03T05:43:51;7.40;;;1.92;;
70729;SDS011;58315;53.336;55.932;2022-08-03T05:46:36;6.10;;;1.83;;
70729;SDS011;58315;53.336;55.932;2022-08-03T05:49:21;23.52;;;3.30;;
70729;SDS011;58315;53.336;55.932;2022-08-03T05:52:05;5.63;;;1.67;;
70729;SDS011;58315;53.336;55.932;2022-08-03T05:54:50;5.28;;;1.80;;
70729;SDS011;58315;53.336;55.932;2022-08-03T05:57:34;9.88;;;1.80;;
70729;SDS011;58315;53.336;55.932;2022-08-03T06:00:19;12.48;;;1.98;;
70729;SDS011;58315;53.336;55.932;2022-08-03T06:03:03;9.60;;;2.63;;
70729;SDS011;58315;53.336;55.932;2022-08-03T06:05:48;7.82;;;2.03;;
70729;SDS011;58315;53.336;55.932;2022-08-03T06:08:32;3.90;;;2.10;;
70729;SDS011;58315;53.336;55.932;2022-08-03T06:11:17;8.25;;;1.77;;
70729;SDS011;58315;53.336;55.932;2022-08-03T06:14:02;8.15;;;1.98;;
70729;SDS011;58315;53.336;55.932;2022-08-03T06:16:47;7.07;;;1.70;;
70729;SDS011;58315;53.336;55.932;2022-08-03T06:19:31;3.17;;;1.60;;
70729;SDS011;58315;53.336;55.932;2022-08-03T06:22:15;5.70;;;1.60;;
70729;SDS011;58315;53.336;55.932;2022-08-03T06:25:00;8.13;;;1.75;;
70729;SDS011;58315;53.336;55.932;2022-08-03T06:27:44;2.90;;;1.58;;
70729;SDS011;58315;53.336;55.932;2022-08-03T06:30:29;7.20;;;1.95;;
70729;SDS011;58315;53.336;55.932;2022-08-03T06:33:14;7.47;;;1.70;;
70729;SDS011;58315;53.336;55.932;2022-08-03T06:35:59;5.50;;;1.70;;
70729;SDS011;58315;53.336;55.932;2022-08-03T06:38:44;2.90;;;1.20;;
70729;SDS011;58315;53.336;55.932;2022-08-03T06:41:28;5.75;;;1.77;;
70729;SDS011;58315;53.336;55.932;2022-08-03T06:44:13;3.63;;;1.40;;
70729;SDS011;58315;53.336;55.932;2022-08-03T06:46:58;4.68;;;1.33;;
70729;SDS011;58315;53.336;55.932;2022-08-03T06:49:42;6.00;;;1.75;;
70729;SDS011;58315;53.336;55.932;2022-08-03T06:52:27;4.60;;;1.60;;
70729;SDS011;58315;53.336;55.932;2022-08-03T06:55:11;7.20;;;1.60;;
70729;SDS011;58315;53.336;55.932;2022-08-03T06:57:56;6.38;;;1.40;;
70729;SDS011;58315;53.336;55.932;2022-08-03T07:00:41;5.28;;;1.55;;
70729;SDS011;58315;53.336;55.932;2022-08-03T07:03:25;8.30;;;1.58;;
70729;SDS011;58315;53.336;55.932;2022-08-03T07:06:09;5.53;;;1.50;;
70729;SDS011;58315;53.336;55.932;2022-08-03T07:08:54;3.65;;;1.40;;
70729;SDS011;58315;53.336;55.932;2022-08-03T07:11:39;6.07;;;1.90;;
70729;SDS011;58315;53.336;55.932;2022-08-03T07:14:23;4.43;;;1.98;;
70729;SDS011;58315;53.336;55.932;2022-08-03T07:17:08;12.68;;;2.05;;
70729;SDS011;58315;53.336;55.932;2022-08-03T07:19:52;8.38;;;1.80;;
70729;SDS011;58315;53.336;55.932;2022-08-03T07:22:37;12.52;;;1.80;;
70729;SDS011;58315;53.336;55.932;2022-08-03T07:25:21;8.48;;;1.80;;
70729;SDS011;58315;53.336;55.932;2022-08-03T07:28:06;4.10;;;1.58;;
70729;SDS011;58315;53.336;55.932;2022-08-03T07:30:51;6.32;;;1.40;;
70729;SDS011;58315;53.336;55.932;2022-08-03T07:33:35;5.60;;;1.40;;
70729;SDS011;58315;53.336;55.932;2022-08-03T07:36:19;9.40;;;1.80;;
70729;SDS011;58315;53.336;55.932;2022-08-03T07:39:04;7.57;;;1.50;;
70729;SDS011;58315;53.336;55.932;2022-08-03T07:41:48;5.03;;;1.70;;
70729;SDS011;58315;53.336;55.932;2022-08-03T07:44:34;4.30;;;1.30;;
70729;SDS011;58315;53.336;55.932;2022-08-03T07:47:19;6.40;;;1.40;;
70729;SDS011;58315;53.336;55.932;2022-08-03T07:50:06;5.80;;;1.70;;
70729;SDS011;58315;53.336;55.932;2022-08-03T07:52:51;2.90;;;1.50;;
70729;SDS011;58315;53.336;55.932;2022-08-03T07:55:36;5.13;;;1.40;;
70729;SDS011;58315;53.336;55.932;2022-08-03T07:58:21;5.22;;;1.63;;
70729;SDS011;58315;53.336;55.932;2022-08-03T08:01:06;5.07;;;1.27;;
70729;SDS011;58315;53.336;55.932;2022-08-03T08:03:50;4.50;;;1.63;;
70729;SDS011;58315;53.336;55.932;2022-08-03T08:06:35;6.72;;;1.98;;
70729;SDS011;58315;53.336;55.932;2022-08-03T08:09:19;3.20;;;1.70;;
70729;SDS011;58315;53.336;55.932;2022-08-03T08:12:04;10.23;;;1.65;;
70729;SDS011;58315;53.336;55.932;2022-08-03T08:14:50;5.00;;;1.70;;
70729;SDS011;58315;53.336;55.932;2022-08-03T08:17:54;4.90;;;1.63;;
70729;SDS011;58315;53.336;55.932;2022-08-03T08:20:39;3.75;;;1.48;;
70729;SDS011;58315;53.336;55.932;2022-08-03T08:23:24;4.45;;;1.30;;
70729;SDS011;58315;53.336;55.932;2022-08-03T08:26:09;2.55;;;1.15;;
70729;SDS011;58315;53.336;55.932;2022-08-03T08:28:53;3.55;;;1.35;;
70729;SDS011;58315;53.336;55.932;2022-08-03T08:31:38;4.00;;;1.33;;
70729;SDS011;58315;53.336;55.932;2022-08-03T08:34:22;12.23;;;1.38;;
70729;SDS011;58315;53.336;55.932;2022-08-03T08:37:07;2.88;;;1.30;;
70729;SDS011;58315;53.336;55.932;2022-08-03T08:39:51;7.63;;;1.38;;
70729;SDS011;58315;53.336;55.932;2022-08-03T08:42:36;3.13;;;1.48;;
70729;SDS011;58315;53.336;55.932;2022-08-03T08:45:21;4.90;;;1.30;;
70729;SDS011;58315;53.336;55.932;2022-08-03T08:48:07;6.50;;;1.48;;
70729;SDS011;58315;53.336;55.932;2022-08-03T08:50:54;3.88;;;1.50;;
70729;SDS011;58315;53.336;55.932;2022-08-03T08:53:40;6.35;;;1.85;;
70729;SDS011;58315;53.336;55.932;2022-08-03T08:56:11;9.07;;;1.60;;
70729;SDS011;58315;53.336;55.932;2022-08-03T08:58:50;2.58;;;1.02;;
70729;SDS011;58315;53.336;55.932;2022-08-03T09:01:17;6.03;;;1.40;;
70729;SDS011;58315;53.336;55.932;2022-08-03T09:03:45;3.38;;;1.20;;
70729;SDS011;58315;53.336;55.932;2022-08-03T09:06:12;4.70;;;1.50;;
70729;SDS011;58315;53.336;55.932;2022-08-03T09:08:39;4.55;;;1.38;;
70729;SDS011;58315;53.336;55.932;2022-08-03T09:11:05;4.78;;;1.83;;
70729;SDS011;58315;53.336;55.932;2022-08-03T09:13:32;3.58;;;1.42;;
70729;SDS011;58315;53.336;55.932;2022-08-03T09:18:39;3.28;;;1.25;;
70729;SDS011;58315;53.336;55.932;2022-08-03T09:21:18;2.88;;;1.40;;
70729;SDS011;58315;53.336;55.932;2022-08-03T09:23:54;6.47;;;1.50;;
70729;SDS011;58315;53.336;55.932;2022-08-03T09:26:22;3.17;;;1.50;;
70729;SDS011;58315;53.336;55.932;2022-08-03T09:31:31;2.95;;;1.58;;
70729;SDS011;58315;53.336;55.932;2022-08-03T09:34:03;12.25;;;1.60;;
70729;SDS011;58315;53.336;55.932;2022-08-03T09:36:37;3.97;;;1.60;;
70729;SDS011;58315;53.336;55.932;2022-08-03T09:39:14;2.95;;;1.35;;
70729;SDS011;58315;53.336;55.932;2022-08-03T09:41:43;7.70;;;1.47;;
70729;SDS011;58315;53.336;55.932;2022-08-03T09:44:14;4.72;;;1.55;;
70729;SDS011;58315;53.336;55.932;2022-08-03T09:46:46;8.20;;;1.42;;
70729;SDS011;58315;53.336;55.932;2022-08-03T09:49:13;6.13;;;1.50;;
70729;SDS011;58315;53.336;55.932;2022-08-03T09:51:39;5.32;;;1.52;;
70729;SDS011;58315;53.336;55.932;2022-08-03T09:54:05;9.45;;;1.73;;
70729;SDS011;58315;53.336;55.932;2022-08-03T09:56:45;4.70;;;1.60;;
70729;SDS011;58315;53.336;55.932;2022-08-03T09:59:13;4.70;;;1.58;;
70729;SDS011;58315;53.336;55.932;2022-08-03T10:01:48;3.97;;;1.50;;
70729;SDS011;58315;53.336;55.932;2022-08-03T10:04:14;5.40;;;1.58;;
70729;SDS011;58315;53.336;55.932;2022-08-03T10:09:11;2.80;;;1.58;;
70729;SDS011;58315;53.336;55.932;2022-08-03T10:11:39;5.13;;;1.40;;
70729;SDS011;58315;53.336;55.932;2022-08-03T10:14:10;2.42;;;1.55;;
70729;SDS011;58315;53.336;55.932;2022-08-03T10:16:43;8.45;;;1.90;;
70729;SDS011;58315;53.336;55.932;2022-08-03T10:19:11;2.58;;;1.58;;
70729;SDS011;58315;53.336;55.932;2022-08-03T10:21:41;3.85;;;1.60;;
70729;SDS011;58315;53.336;55.932;2022-08-03T10:24:14;6.38;;;1.60;;
70729;SDS011;58315;53.336;55.932;2022-08-03T10:26:43;4.82;;;1.60;;
70729;SDS011;58315;53.336;55.932;2022-08-03T10:29:11;6.13;;;1.67;;
70729;SDS011;58315;53.336;55.932;2022-08-03T10:31:45;3.65;;;1.90;;
70729;SDS011;58315;53.336;55.932;2022-08-03T10:34:21;3.05;;;1.40;;
70729;SDS011;58315;53.336;55.932;2022-08-03T10:36:48;7.25;;;1.67;;
70729;SDS011;58315;53.336;55.932;2022-08-03T10:41:46;14.27;;;1.80;;
70729;SDS011;58315;53.336;55.932;2022-08-03T10:44:17;5.57;;;1.83;;
70729;SDS011;58315;53.336;55.932;2022-08-03T10:46:45;4.82;;;1.80;;
70729;SDS011;58315;53.336;55.932;2022-08-03T10:49:18;5.15;;;1.90;;
70729;SDS011;58315;53.336;55.932;2022-08-03T10:51:46;3.65;;;1.75;;
70729;SDS011;58315;53.336;55.932;2022-08-03T10:57:01;3.63;;;1.50;;
70729;SDS011;58315;53.336;55.932;2022-08-03T11:02:12;6.13;;;1.60;;
70729;SDS011;58315;53.336;55.932;2022-08-03T11:04:40;2.85;;;1.48;;
70729;SDS011;58315;53.336;55.932;2022-08-03T11:09:42;3.20;;;1.52;;
70729;SDS011;58315;53.336;55.932;2022-08-03T11:14:46;6.68;;;1.60;;
70729;SDS011;58315;53.336;55.932;2022-08-03T11:17:13;12.82;;;1.63;;
70729;SDS011;58315;53.336;55.932;2022-08-03T11:19:46;5.13;;;1.63;;
70729;SDS011;58315;53.336;55.932;2022-08-03T11:22:17;7.97;;;3.60;;
70729;SDS011;58315;53.336;55.932;2022-08-03T11:27:16;3.95;;;1.77;;
70729;SDS011;58315;53.336;55.932;2022-08-03T11:30:06;4.03;;;1.45;;
70729;SDS011;58315;53.336;55.932;2022-08-03T11:48:38;2.45;;;1.45;;
70729;SDS011;58315;53.336;55.932;2022-08-03T11:51:06;2.25;;;1.20;;
70729;SDS011;58315;53.336;55.932;2022-08-03T11:53:43;3.90;;;1.83;;
70729;SDS011;58315;53.336;55.932;2022-08-03T11:56:09;8.68;;;2.22;;
70729;SDS011;58315;53.336;55.932;2022-08-03T11:58:35;3.95;;;1.58;;
70729;SDS011;58315;53.336;55.932;2022-08-03T12:01:04;5.65;;;1.60;;
70729;SDS011;58315;53.336;55.932;2022-08-03T12:03:31;4.43;;;1.40;;
70729;SDS011;58315;53.336;55.932;2022-08-03T12:05:58;2.70;;;1.45;;
70729;SDS011;58315;53.336;55.932;2022-08-03T12:08:30;9.90;;;2.00;;
70729;SDS011;58315;53.336;55.932;2022-08-03T12:10:57;8.05;;;2.30;;
70729;SDS011;58315;53.336;55.932;2022-08-03T12:13:24;9.15;;;1.80;;
70729;SDS011;58315;53.336;55.932;2022-08-03T12:15:54;7.13;;;1.95;;
70729;SDS011;58315;53.336;55.932;2022-08-03T12:18:22;4.75;;;1.60;;
70729;SDS011;58315;53.336;55.932;2022-08-03T12:20:49;5.68;;;2.00;;
70729;SDS011;58315;53.336;55.932;2022-08-03T12:23:16;5.15;;;1.67;;
70729;SDS011;58315;53.336;55.932;2022-08-03T12:25:43;3.72;;;2.03;;
70729;SDS011;58315;53.336;55.932;2022-08-03T12:28:15;3.58;;;1.73;;
70729;SDS011;58315;53.336;55.932;2022-08-03T12:30:47;6.80;;;2.10;;
70729;SDS011;58315;53.336;55.932;2022-08-03T12:33:22;6.93;;;1.80;;
70729;SDS011;58315;53.336;55.932;2022-08-03T12:36:05;8.30;;;1.75;;
70729;SDS011;58315;53.336;55.932;2022-08-03T12:38:33;7.18;;;1.77;;
70729;SDS011;58315;53.336;55.932;2022-08-03T12:41:05;4.55;;;2.20;;
70729;SDS011;58315;53.336;55.932;2022-08-03T12:43:33;9.80;;;1.90;;
70729;SDS011;58315;53.336;55.932;2022-08-03T12:46:10;7.85;;;2.28;;
70729;SDS011;58315;53.336;55.932;2022-08-03T12:51:28;8.70;;;2.33;;
70729;SDS011;58315;53.336;55.932;2022-08-03T12:53:55;5.32;;;1.98;;
70729;SDS011;58315;53.336;55.932;2022-08-03T12:56:22;5.20;;;2.08;;
70729;SDS011;58315;53.336;55.932;2022-08-03T12:58:49;5.72;;;2.15;;
70729;SDS011;58315;53.336;55.932;2022-08-03T13:01:15;5.25;;;2.65;;
70729;SDS011;58315;53.336;55.932;2022-08-03T13:03:43;5.50;;;2.38;;
70729;SDS011;58315;53.336;55.932;2022-08-03T13:06:13;6.78;;;2.35;;
70729;SDS011;58315;53.336;55.932;2022-08-03T13:08:40;4.10;;;1.90;;
70729;SDS011;58315;53.336;55.932;2022-08-03T13:14:02;7.22;;;2.53;;
70729;SDS011;58315;53.336;55.932;2022-08-03T13:16:28;11.38;;;2.70;;
70729;SDS011;58315;53.336;55.932;2022-08-03T13:18:57;4.85;;;2.47;;
70729;SDS011;58315;53.336;55.932;2022-08-03T13:21:23;8.48;;;2.13;;
70729;SDS011;58315;53.336;55.932;2022-08-03T13:23:49;4.63;;;1.83;;
70729;SDS011;58315;53.336;55.932;2022-08-03T13:26:15;9.25;;;2.25;;
70729;SDS011;58315;53.336;55.932;2022-08-03T13:28:41;10.82;;;2.30;;
70729;SDS011;58315;53.336;55.932;2022-08-03T13:31:06;13.98;;;2.25;;
70729;SDS011;58315;53.336;55.932;2022-08-03T13:33:32;7.75;;;2.60;;
70729;SDS011;58315;53.336;55.932;2022-08-03T13:35:58;10.93;;;2.97;;
70729;SDS011;58315;53.336;55.932;2022-08-03T13:38:24;15.57;;;2.60;;
70729;SDS011;58315;53.336;55.932;2022-08-03T13:40:51;7.45;;;2.67;;
70729;SDS011;58315;53.336;55.932;2022-08-03T13:43:18;6.50;;;2.22;;
70729;SDS011;58315;53.336;55.932;2022-08-03T13:45:45;8.20;;;2.65;;
70729;SDS011;58315;53.336;55.932;2022-08-03T13:48:11;5.00;;;2.17;;
70729;SDS011;58315;53.336;55.932;2022-08-03T13:50:37;7.22;;;2.50;;
70729;SDS011;58315;53.336;55.932;2022-08-03T13:53:03;4.68;;;2.10;;
70729;SDS011;58315;53.336;55.932;2022-08-03T13:55:29;21.55;;;3.05;;
70729;SDS011;58315;53.336;55.932;2022-08-03T13:57:55;15.60;;;2.67;;
70729;SDS011;58315;53.336;55.932;2022-08-03T14:00:21;8.15;;;2.60;;
70729;SDS011;58315;53.336;55.932;2022-08-03T14:02:50;7.55;;;2.40;;
70729;SDS011;58315;53.336;55.932;2022-08-03T14:05:17;6.00;;;2.13;;
70729;SDS011;58315;53.336;55.932;2022-08-03T14:07:43;7.15;;;2.33;;
70729;SDS011;58315;53.336;55.932;2022-08-03T14:10:09;10.70;;;2.58;;
70729;SDS011;58315;53.336;55.932;2022-08-03T14:12:36;10.52;;;2.40;;
70729;SDS011;58315;53.336;55.932;2022-08-03T14:15:02;9.07;;;2.80;;
70729;SDS011;58315;53.336;55.932;2022-08-03T14:17:29;6.90;;;2.63;;
70729;SDS011;58315;53.336;55.932;2022-08-03T14:19:55;9.48;;;2.30;;
70729;SDS011;58315;53.336;55.932;2022-08-03T14:22:21;16.98;;;2.60;;
70729;SDS011;58315;53.336;55.932;2022-08-03T14:24:47;5.38;;;2.53;;
70729;SDS011;58315;53.336;55.932;2022-08-03T14:27:13;5.53;;;2.53;;
70729;SDS011;58315;53.336;55.932;2022-08-03T14:29:39;11.98;;;2.40;;
70729;SDS011;58315;53.336;55.932;2022-08-03T14:32:06;8.07;;;2.50;;
70729;SDS011;58315;53.336;55.932;2022-08-03T14:34:32;9.27;;;2.90;;
70729;SDS011;58315;53.336;55.932;2022-08-03T14:36:58;8.75;;;2.75;;
70729;SDS011;58315;53.336;55.932;2022-08-03T14:39:24;8.95;;;3.22;;
70729;SDS011;58315;53.336;55.932;2022-08-03T14:41:50;6.63;;;3.00;;
70729;SDS011;58315;53.336;55.932;2022-08-03T14:44:16;9.18;;;2.90;;
70729;SDS011;58315;53.336;55.932;2022-08-03T14:46:42;8.25;;;3.03;;
70729;SDS011;58315;53.336;55.932;2022-08-03T14:49:07;7.90;;;3.55;;
70729;SDS011;58315;53.336;55.932;2022-08-03T14:51:33;18.80;;;3.35;;
70729;SDS011;58315;53.336;55.932;2022-08-03T14:53:59;10.98;;;3.15;;
70729;SDS011;58315;53.336;55.932;2022-08-03T14:56:25;6.00;;;2.78;;
70729;SDS011;58315;53.336;55.932;2022-08-03T14:58:51;6.82;;;2.58;;
70729;SDS011;58315;53.336;55.932;2022-08-03T15:01:17;13.27;;;3.15;;
70729;SDS011;58315;53.336;55.932;2022-08-03T15:03:43;8.23;;;3.10;;
70729;SDS011;58315;53.336;55.932;2022-08-03T15:06:11;12.00;;;3.97;;
70729;SDS011;58315;53.336;55.932;2022-08-03T15:08:37;12.90;;;3.80;;
70729;SDS011;58315;53.336;55.932;2022-08-03T15:11:03;13.13;;;2.92;;
70729;SDS011;58315;53.336;55.932;2022-08-03T15:13:29;6.68;;;2.60;;
70729;SDS011;58315;53.336;55.932;2022-08-03T15:15:54;4.50;;;2.65;;
70729;SDS011;58315;53.336;55.932;2022-08-03T15:18:22;12.77;;;2.67;;
70729;SDS011;58315;53.336;55.932;2022-08-03T15:20:48;16.45;;;2.65;;
70729;SDS011;58315;53.336;55.932;2022-08-03T15:23:15;15.15;;;2.90;;
70729;SDS011;58315;53.336;55.932;2022-08-03T15:25:42;8.93;;;2.70;;
70729;SDS011;58315;53.336;55.932;2022-08-03T15:28:09;10.82;;;3.28;;
70729;SDS011;58315;53.336;55.932;2022-08-03T15:30:35;18.50;;;3.47;;
70729;SDS011;58315;53.336;55.932;2022-08-03T15:33:03;5.85;;;2.78;;
70729;SDS011;58315;53.336;55.932;2022-08-03T15:35:29;10.00;;;2.40;;
70729;SDS011;58315;53.336;55.932;2022-08-03T15:37:55;4.53;;;2.03;;
70729;SDS011;58315;53.336;55.932;2022-08-03T15:40:21;7.90;;;2.38;;
70729;SDS011;58315;53.336;55.932;2022-08-03T15:42:47;10.00;;;2.58;;
70729;SDS011;58315;53.336;55.932;2022-08-03T15:45:13;9.65;;;2.85;;
70729;SDS011;58315;53.336;55.932;2022-08-03T15:47:38;15.30;;;2.70;;
70729;SDS011;58315;53.336;55.932;2022-08-03T15:50:04;11.73;;;2.67;;
70729;SDS011;58315;53.336;55.932;2022-08-03T15:52:31;6.15;;;2.55;;
70729;SDS011;58315;53.336;55.932;2022-08-03T15:54:56;14.18;;;2.65;;
70729;SDS011;58315;53.336;55.932;2022-08-03T15:57:22;7.80;;;3.10;;
70729;SDS011;58315;53.336;55.932;2022-08-03T15:59:48;15.13;;;2.78;;
70729;SDS011;58315;53.336;55.932;2022-08-03T16:02:14;5.72;;;2.38;;
70729;SDS011;58315;53.336;55.932;2022-08-03T16:04:40;11.95;;;2.67;;
70729;SDS011;58315;53.336;55.932;2022-08-03T16:07:06;7.25;;;2.42;;
70729;SDS011;58315;53.336;55.932;2022-08-03T16:09:33;5.47;;;2.33;;
70729;SDS011;58315;53.336;55.932;2022-08-03T16:11:59;9.50;;;2.75;;
70729;SDS011;58315;53.336;55.932;2022-08-03T16:14:25;14.98;;;2.60;;
70729;SDS011;58315;53.336;55.932;2022-08-03T16:16:51;7.18;;;2.55;;
70729;SDS011;58315;53.336;55.932;2022-08-03T16:19:17;9.50;;;2.40;;
70729;SDS011;58315;53.336;55.932;2022-08-03T16:21:42;7.53;;;2.55;;
70729;SDS011;58315;53.336;55.932;2022-08-03T16:24:08;8.43;;;2.90;;
70729;SDS011;58315;53.336;55.932;2022-08-03T16:26:34;11.00;;;2.85;;
70729;SDS011;58315;53.336;55.932;2022-08-03T16:29:00;7.72;;;3.10;;
70729;SDS011;58315;53.336;55.932;2022-08-03T16:31:26;13.27;;;3.30;;
70729;SDS011;58315;53.336;55.932;2022-08-03T16:33:53;10.43;;;3.20;;